createdAt,value
2019-03-12T00:01:03.017Z,68.77
2019-03-12T00:03:32.788Z,69.12
2019-03-12T00:06:02.331Z,69.23
2019-03-12T00:08:31.868Z,69.26
2019-03-12T00:11:01.382Z,69.18
2019-03-12T00:13:31.080Z,69.21
2019-03-12T00:16:00.806Z,69.19
2019-03-12T00:18:30.456Z,69.26
2019-03-12T00:21:00.011Z,69.37
2019-03-12T00:23:30.119Z,69.23
2019-03-12T00:25:59.671Z,69.31
2019-03-12T00:28:29.252Z,69.47
2019-03-12T00:30:58.948Z,69.56
2019-03-12T00:33:28.942Z,69.66
2019-03-12T00:35:58.534Z,70.01
2019-03-12T00:38:28.425Z,70.41
2019-03-12T00:41:00.292Z,70.71
2019-03-12T00:43:29.931Z,70.79
2019-03-12T00:45:59.593Z,70.88
2019-03-12T00:48:29.635Z,71.02
2019-03-12T00:50:59.266Z,70.95
2019-03-12T00:53:29.023Z,70.74
2019-03-12T00:55:58.637Z,70.63
2019-03-12T00:58:28.510Z,70.45
2019-03-12T01:00:58.533Z,70.19
2019-03-12T01:03:29.102Z,69.89
2019-03-12T01:05:58.715Z,69.56
2019-03-12T01:08:28.502Z,69.59
2019-03-12T01:10:58.490Z,70.06
2019-03-12T01:13:28.338Z,70.25
2019-03-12T01:15:58.240Z,70.34
2019-03-12T01:18:28.375Z,70.06
2019-03-12T01:20:58.320Z,70.03
2019-03-12T01:23:28.291Z,69.95
2019-03-12T01:25:58.350Z,69.85
2019-03-12T01:28:28.175Z,70.17
2019-03-12T01:30:58.035Z,70.45
2019-03-12T01:33:27.927Z,71.04
2019-03-12T01:35:57.436Z,71.25
2019-03-12T01:38:27.064Z,71.45
2019-03-12T01:40:56.935Z,71.62
2019-03-12T01:43:26.512Z,71.64
2019-03-12T01:45:56.433Z,71.70
2019-03-12T01:48:26.319Z,71.76
2019-03-12T01:50:56.543Z,71.59
2019-03-12T01:53:26.412Z,71.38
2019-03-12T01:55:56.355Z,71.34
2019-03-12T01:58:26.256Z,71.33
2019-03-12T02:00:56.167Z,71.12
2019-03-12T02:03:26.076Z,70.87
2019-03-12T02:05:56.184Z,70.42
2019-03-12T02:08:26.017Z,70.79
2019-03-12T02:10:55.615Z,71.43
2019-03-12T02:13:25.494Z,71.75
2019-03-12T02:15:55.504Z,71.86
2019-03-12T02:18:25.130Z,71.92
2019-03-12T02:20:55.071Z,71.77
2019-03-12T02:23:24.845Z,71.65
2019-03-12T02:25:54.413Z,71.51
2019-03-12T02:28:24.014Z,71.30
2019-03-12T02:30:53.604Z,71.44
2019-03-12T02:33:23.527Z,71.76
2019-03-12T02:35:53.101Z,71.88
2019-03-12T02:38:22.635Z,71.88
2019-03-12T02:40:54.444Z,71.84
2019-03-12T02:43:24.020Z,71.88
2019-03-12T02:45:53.884Z,71.90
2019-03-12T02:48:23.553Z,71.96
2019-03-12T02:50:53.653Z,72.15
2019-03-12T02:53:23.463Z,72.27
2019-03-12T02:55:53.121Z,72.29
2019-03-12T02:58:22.670Z,72.26
2019-03-12T03:00:52.187Z,72.00
2019-03-12T03:03:21.760Z,71.76
2019-03-12T03:06:08.643Z,71.71
2019-03-12T03:08:38.717Z,71.79
2019-03-12T03:11:08.339Z,71.79
2019-03-12T03:13:37.930Z,71.60
2019-03-12T03:16:08.349Z,71.56
2019-03-12T03:18:37.970Z,71.90
2019-03-12T03:21:08.200Z,72.01
2019-03-12T03:23:38.185Z,71.92
2019-03-12T03:26:07.765Z,71.77
2019-03-12T03:28:37.403Z,71.74
2019-03-12T03:31:07.124Z,71.85
2019-03-12T03:33:36.605Z,72.15
2019-03-12T03:36:06.363Z,72.28
2019-03-12T03:38:35.966Z,72.35
2019-03-12T03:41:05.771Z,72.36
2019-03-12T03:43:35.429Z,72.15
2019-03-12T03:46:05.066Z,72.22
2019-03-12T03:48:34.571Z,72.33
2019-03-12T03:51:04.182Z,72.42
2019-03-12T03:53:34.007Z,72.52
2019-03-12T03:56:03.876Z,72.57
2019-03-12T03:58:33.437Z,72.69
2019-03-12T04:01:03.176Z,72.70
2019-03-12T04:03:32.911Z,72.72
2019-03-12T04:06:02.594Z,72.66
2019-03-12T04:08:32.226Z,72.70
2019-03-12T04:11:01.853Z,72.72
2019-03-12T04:13:31.514Z,72.76
2019-03-12T04:16:01.077Z,72.79
2019-03-12T04:18:30.638Z,72.85
2019-03-12T04:21:00.223Z,72.86
2019-03-12T04:23:29.842Z,72.99
2019-03-12T04:25:59.524Z,72.92
2019-03-12T04:28:29.367Z,72.90
2019-03-12T04:30:59.008Z,72.96
2019-03-12T04:34:17.938Z,73.01
2019-03-12T04:36:48.939Z,72.98
2019-03-12T04:39:18.592Z,72.98
2019-03-12T04:41:48.270Z,72.80
2019-03-12T04:44:17.965Z,72.64
2019-03-12T04:46:47.690Z,72.65
2019-03-12T04:49:17.642Z,72.85
2019-03-12T04:51:47.264Z,73.00
2019-03-12T04:54:17.046Z,72.96
2019-03-12T04:56:46.903Z,72.81
2019-03-12T04:59:16.574Z,72.68
2019-03-12T05:01:46.413Z,72.58
2019-03-12T05:04:16.048Z,72.48
2019-03-12T05:06:45.856Z,72.54
2019-03-12T05:09:15.407Z,72.81
2019-03-12T05:11:44.976Z,72.96
2019-03-12T05:14:36.097Z,72.99
2019-03-12T05:17:22.592Z,73.09
2019-03-12T05:19:52.341Z,73.14
2019-03-12T05:22:23.769Z,73.26
2019-03-12T05:24:53.946Z,73.30
2019-03-12T05:27:25.082Z,73.38
2019-03-12T05:29:55.707Z,73.51
2019-03-12T05:32:25.703Z,73.48
2019-03-12T05:34:55.483Z,73.35
2019-03-12T05:37:25.434Z,73.47
2019-03-12T05:39:55.081Z,73.54
2019-03-12T05:42:24.814Z,73.73
2019-03-12T05:44:57.606Z,73.80
2019-03-12T05:47:27.513Z,73.86
2019-03-12T05:49:57.839Z,73.80
2019-03-12T05:52:27.607Z,73.86
2019-03-12T05:55:00.869Z,74.11
2019-03-12T05:57:30.655Z,74.46
2019-03-12T06:00:00.409Z,74.51
2019-03-12T06:02:30.349Z,74.44
2019-03-12T06:05:00.455Z,74.45
2019-03-12T06:07:30.132Z,74.59
2019-03-12T06:10:00.371Z,74.52
2019-03-12T06:12:29.920Z,74.49
2019-03-12T06:14:59.725Z,74.53
2019-03-12T06:17:29.509Z,74.43
2019-03-12T06:19:59.227Z,74.40
2019-03-12T06:22:29.432Z,74.60
2019-03-12T06:24:59.179Z,74.98
2019-03-12T06:27:29.199Z,75.13
2019-03-12T06:29:58.926Z,75.70
2019-03-12T06:32:45.793Z,75.77
2019-03-12T06:35:38.908Z,76.39
2019-03-12T06:38:27.642Z,76.79
2019-03-12T06:41:14.131Z,76.90
2019-03-12T06:43:52.285Z,77.58
2019-03-12T06:46:43.570Z,77.80
2019-03-12T06:49:44.495Z,78.22
2019-03-12T06:52:38.815Z,77.93
2019-03-12T06:55:27.665Z,77.87
2019-03-12T06:58:45.368Z,77.94
2019-03-12T07:01:33.905Z,77.71
2019-03-12T07:04:37.811Z,77.83
2019-03-12T07:07:18.638Z,77.66
2019-03-12T07:10:10.843Z,78.08
2019-03-12T07:13:14.475Z,78.27
2019-03-12T07:15:51.853Z,78.92
2019-03-12T07:18:40.401Z,78.83
2019-03-12T07:21:19.552Z,78.43
2019-03-12T07:24:13.186Z,78.54
2019-03-12T07:27:15.019Z,78.66
2019-03-12T07:30:06.682Z,79.59
2019-03-12T07:33:01.379Z,79.81
2019-03-12T07:35:55.792Z,79.26
2019-03-12T07:38:34.401Z,79.33
2019-03-12T07:41:31.325Z,79.29
2019-03-12T07:43:59.992Z,79.78
2019-03-12T07:46:48.523Z,79.78
2019-03-12T07:49:40.130Z,80.04
2019-03-12T07:52:31.760Z,80.24
2019-03-12T07:55:20.213Z,79.91
2019-03-12T07:58:35.741Z,79.61
2019-03-12T08:01:25.135Z,79.58
2019-03-12T08:04:17.073Z,79.04
2019-03-12T08:07:12.970Z,80.05
2019-03-12T08:10:07.373Z,80.59
2019-03-12T08:13:01.879Z,80.69
2019-03-12T08:15:53.371Z,80.49
2019-03-12T08:18:38.006Z,80.38
2019-03-12T08:21:26.758Z,80.18
2019-03-12T08:24:07.271Z,80.03
2019-03-12T08:26:45.754Z,79.89
2019-03-12T08:29:49.309Z,79.59
2019-03-12T08:32:26.582Z,79.88
2019-03-12T08:35:08.679Z,79.76
2019-03-12T08:37:54.948Z,79.42
2019-03-12T08:40:52.559Z,79.37
2019-03-12T08:43:40.042Z,79.15
2019-03-12T08:46:34.679Z,79.21
2019-03-12T08:49:35.597Z,79.25
2019-03-12T08:52:33.035Z,79.35
2019-03-12T08:55:25.090Z,79.04
2019-03-12T08:58:11.967Z,78.76
2019-03-12T09:01:09.837Z,78.38
2019-03-12T09:03:58.775Z,78.23
2019-03-12T09:07:05.935Z,78.12
2019-03-12T09:09:50.619Z,77.98
2019-03-12T09:12:29.133Z,77.70
2019-03-12T09:15:16.628Z,77.49
2019-03-12T09:18:23.208Z,77.37
2019-03-12T09:21:11.807Z,77.37
2019-03-12T09:24:02.923Z,77.21
2019-03-12T09:26:54.336Z,77.12
2019-03-12T09:29:45.822Z,77.20
2019-03-12T09:32:30.492Z,77.25
2019-03-12T09:35:31.005Z,77.40
2019-03-12T09:38:25.637Z,77.40
2019-03-12T09:41:20.235Z,77.42
2019-03-12T09:44:07.337Z,77.53
2019-03-12T09:46:55.859Z,77.23
2019-03-12T09:49:40.404Z,76.99
2019-03-12T09:52:27.525Z,77.15
2019-03-12T09:55:19.338Z,77.28
2019-03-12T09:58:11.113Z,77.49
2019-03-12T10:00:59.733Z,77.34
2019-03-12T10:03:51.395Z,77.52
2019-03-12T10:06:43.347Z,77.14
2019-03-12T10:09:33.002Z,76.84
2019-03-12T10:12:27.866Z,76.48
2019-03-12T10:15:14.608Z,76.71
2019-03-12T10:17:50.687Z,76.71
2019-03-12T10:20:36.498Z,76.60
2019-03-12T10:23:12.533Z,76.82
2019-03-12T10:26:06.595Z,77.12
2019-03-12T10:29:04.463Z,77.36
2019-03-12T10:32:05.174Z,77.23
2019-03-12T10:34:45.641Z,76.96
2019-03-12T10:37:29.373Z,76.62
2019-03-12T10:40:19.147Z,76.26
2019-03-12T10:43:03.456Z,76.08
2019-03-12T10:45:52.107Z,76.33
2019-03-12T10:48:22.123Z,77.09
2019-03-12T10:50:51.846Z,77.09
2019-03-12T10:53:21.702Z,76.66
2019-03-12T10:55:51.545Z,76.46
2019-03-12T10:58:21.360Z,76.42
2019-03-12T11:00:52.270Z,76.53
2019-03-12T11:03:22.028Z,76.71
2019-03-12T11:05:52.017Z,76.53
2019-03-12T11:08:21.964Z,76.22
2019-03-12T11:10:51.843Z,76.39
2019-03-12T11:13:21.676Z,76.45
2019-03-12T11:15:51.741Z,76.48
2019-03-12T11:18:22.217Z,76.48
2019-03-12T11:20:52.559Z,76.52
2019-03-12T11:23:22.258Z,76.42
2019-03-12T11:25:52.976Z,76.29
2019-03-12T11:28:23.185Z,76.51
2019-03-12T11:30:53.142Z,76.50
2019-03-12T11:33:23.052Z,76.55
2019-03-12T11:35:53.247Z,76.84
2019-03-12T11:38:23.342Z,77.00
2019-03-12T11:40:53.866Z,77.43
2019-03-12T11:43:23.935Z,77.43
2019-03-12T11:45:53.946Z,77.75
2019-03-12T11:48:23.656Z,77.88
2019-03-12T11:50:53.444Z,78.18
2019-03-12T11:53:23.173Z,78.40
2019-03-12T11:55:52.803Z,78.30
2019-03-12T11:58:22.507Z,78.05
2019-03-12T12:01:17.159Z,78.03
2019-03-12T12:03:46.942Z,78.11
2019-03-12T12:06:16.510Z,77.93
2019-03-12T12:08:46.493Z,77.93
2019-03-12T12:11:16.200Z,77.98
2019-03-12T12:13:45.871Z,77.97
2019-03-12T12:16:16.076Z,77.97
2019-03-12T12:18:45.839Z,77.97
2019-03-12T12:21:15.721Z,77.64
2019-03-12T12:23:45.494Z,77.80
2019-03-12T12:26:15.189Z,78.15
2019-03-12T12:28:45.049Z,78.15
2019-03-12T12:31:15.663Z,78.35
2019-03-12T12:33:45.336Z,78.57
2019-03-12T12:36:14.922Z,78.44
2019-03-12T12:38:45.478Z,78.30
2019-03-12T12:41:15.098Z,78.30
2019-03-12T12:43:44.656Z,78.04
2019-03-12T12:46:14.525Z,78.12
2019-03-12T12:48:44.272Z,78.18
2019-03-12T12:51:13.968Z,78.69
2019-03-12T12:53:43.911Z,78.69
2019-03-12T12:56:13.637Z,78.56
2019-03-12T12:58:43.589Z,78.33
2019-03-12T13:01:13.959Z,77.93
2019-03-12T13:03:43.720Z,77.93
2019-03-12T13:06:13.475Z,77.71
2019-03-12T13:08:43.406Z,77.77
2019-03-12T13:11:13.109Z,77.77
2019-03-12T13:13:42.779Z,77.57
2019-03-12T13:16:24.523Z,77.41
2019-03-12T13:18:43.718Z,77.42
2019-03-12T13:21:13.302Z,77.42
2019-03-12T13:23:42.965Z,77.08
2019-03-12T13:26:12.738Z,77.08
2019-03-12T13:28:44.862Z,76.62
2019-03-12T13:31:13.605Z,75.73
2019-03-12T13:33:43.429Z,75.26
2019-03-12T13:36:18.431Z,75.26
2019-03-12T13:38:48.950Z,75.26
2019-03-12T13:41:18.820Z,75.02
2019-03-12T13:43:48.434Z,74.75
2019-03-12T13:46:18.066Z,74.26
2019-03-12T13:48:48.028Z,74.26
2019-03-12T13:51:17.803Z,74.29
2019-03-12T13:53:47.418Z,74.40
2019-03-12T13:56:17.013Z,74.36
2019-03-12T13:58:46.654Z,74.20
2019-03-12T14:01:16.196Z,74.42
2019-03-12T14:03:45.830Z,74.01
2019-03-12T14:06:15.585Z,74.01
2019-03-12T14:08:45.290Z,74.44
2019-03-12T14:11:14.889Z,74.52
2019-03-12T14:13:44.513Z,74.38
2019-03-12T14:16:14.279Z,74.11
2019-03-12T14:18:43.915Z,74.11
2019-03-12T14:21:15.685Z,74.20
2019-03-12T14:24:01.174Z,74.23
2019-03-12T14:26:31.431Z,74.23
2019-03-12T14:29:01.203Z,74.37
2019-03-12T14:31:30.954Z,74.21
2019-03-12T14:34:01.004Z,74.21
2019-03-12T14:36:30.813Z,74.38
2019-03-12T14:39:00.746Z,74.62
2019-03-12T14:41:33.465Z,74.57
2019-03-12T14:44:03.318Z,75.27
2019-03-12T14:46:32.933Z,75.26
2019-03-12T14:49:04.737Z,75.02
2019-03-12T14:52:07.520Z,75.02
2019-03-12T14:54:37.257Z,75.24
2019-03-12T14:57:06.953Z,75.50
2019-03-12T14:59:36.918Z,75.62
2019-03-12T15:02:06.623Z,75.62
2019-03-12T15:04:36.337Z,75.69
2019-03-12T15:07:06.547Z,75.80
2019-03-12T15:09:36.412Z,76.06
2019-03-12T15:12:06.559Z,76.57
2019-03-12T15:14:36.255Z,76.57
2019-03-12T15:17:05.905Z,76.71
2019-03-12T15:19:35.552Z,76.71
2019-03-12T15:22:05.213Z,76.90
2019-03-12T15:24:36.295Z,76.90
2019-03-12T15:27:06.221Z,77.21
2019-03-12T15:29:36.023Z,77.59
2019-03-12T15:32:05.604Z,77.95
2019-03-12T15:34:35.297Z,78.07
2019-03-12T15:37:04.961Z,78.07
2019-03-12T15:39:34.704Z,78.25
2019-03-12T15:42:04.598Z,78.46
2019-03-12T15:44:34.360Z,78.58
2019-03-12T15:47:04.131Z,79.05
2019-03-12T15:49:33.789Z,78.98
2019-03-12T15:52:03.474Z,78.98
2019-03-12T15:54:33.732Z,79.41
2019-03-12T15:57:03.487Z,79.74
2019-03-12T15:59:33.099Z,79.74
2019-03-12T16:02:02.777Z,79.68
2019-03-12T16:04:32.313Z,80.04
2019-03-12T16:07:02.039Z,80.19
2019-03-12T16:09:31.878Z,80.12
2019-03-12T16:12:01.521Z,80.41
2019-03-12T16:14:31.387Z,80.37
2019-03-12T16:17:01.029Z,80.89
2019-03-12T16:19:30.639Z,80.51
2019-03-12T16:22:00.320Z,80.51
2019-03-12T16:24:30.022Z,80.62
2019-03-12T16:27:03.277Z,81.10
2019-03-12T16:29:33.715Z,81.22
2019-03-12T16:32:03.817Z,81.29
2019-03-12T16:34:33.567Z,81.25
2019-03-12T16:37:03.128Z,81.10
2019-03-12T16:39:32.942Z,81.10
2019-03-12T16:42:02.604Z,81.17
2019-03-12T16:44:32.886Z,81.17
2019-03-12T16:47:02.585Z,81.51
2019-03-12T16:49:32.298Z,81.49
2019-03-12T16:52:01.916Z,81.47
2019-03-12T16:54:31.441Z,81.35
2019-03-12T16:57:01.331Z,81.45
2019-03-12T16:59:30.917Z,81.45
2019-03-12T17:02:00.862Z,81.86
2019-03-12T17:04:30.530Z,81.86
2019-03-12T17:07:00.206Z,81.79
2019-03-12T17:09:33.306Z,82.08
2019-03-12T17:12:06.602Z,82.07
2019-03-12T17:14:39.012Z,82.05
2019-03-12T17:17:08.626Z,82.38
2019-03-12T17:19:38.260Z,82.49
2019-03-12T17:22:07.929Z,82.26
2019-03-12T17:24:37.560Z,82.23
2019-03-12T17:27:07.653Z,82.46
2019-03-12T17:29:37.467Z,82.48
2019-03-12T17:32:07.321Z,82.59
2019-03-12T17:34:36.920Z,82.56
2019-03-12T17:37:06.462Z,82.78
2019-03-12T17:39:36.062Z,82.62
2019-03-12T17:42:05.776Z,82.68
2019-03-12T17:44:35.876Z,82.74
2019-03-12T17:47:05.686Z,82.42
2019-03-12T17:49:35.426Z,82.49
2019-03-12T17:52:05.171Z,82.91
2019-03-12T17:54:34.823Z,82.91
2019-03-12T17:57:04.640Z,82.58
2019-03-12T17:59:34.577Z,82.72
2019-03-12T18:02:04.559Z,82.91
2019-03-12T18:04:34.325Z,83.04
2019-03-12T18:07:04.227Z,83.23
2019-03-12T18:09:35.265Z,82.98
2019-03-12T18:12:06.134Z,82.95
2019-03-12T18:14:35.802Z,83.15
2019-03-12T18:17:05.436Z,83.17
2019-03-12T18:19:35.229Z,82.95
2019-03-12T18:22:04.951Z,83.20
2019-03-12T18:24:36.179Z,82.99
2019-03-12T18:27:06.151Z,83.21
2019-03-12T18:29:35.887Z,83.10
2019-03-12T18:32:05.658Z,83.36
2019-03-12T18:34:35.357Z,83.26
2019-03-12T18:37:05.112Z,83.74
2019-03-12T18:39:34.959Z,83.47
2019-03-12T18:42:04.769Z,83.55
2019-03-12T18:44:34.377Z,83.75
2019-03-12T18:47:04.756Z,83.87
2019-03-12T18:49:35.103Z,83.69
2019-03-12T18:52:05.135Z,83.75
2019-03-12T18:54:34.816Z,83.57
2019-03-12T18:57:04.643Z,83.58
2019-03-12T18:59:34.286Z,83.54
2019-03-12T19:02:04.137Z,83.66
2019-03-12T19:04:33.747Z,83.70
2019-03-12T19:07:03.567Z,83.94
2019-03-12T19:09:33.501Z,83.64
2019-03-12T19:12:04.280Z,83.88
2019-03-12T19:14:33.947Z,83.89
2019-03-12T19:17:03.868Z,83.88
2019-03-12T19:19:33.569Z,83.91
2019-03-12T19:22:04.658Z,83.99
2019-03-12T19:24:34.324Z,83.92
2019-03-12T19:27:05.355Z,83.87
2019-03-12T19:29:35.050Z,83.62
2019-03-12T19:32:29.698Z,83.67
2019-03-12T19:34:59.518Z,83.66
2019-03-12T19:37:32.768Z,83.56
2019-03-12T19:40:02.679Z,83.87
2019-03-12T19:42:32.699Z,83.87
2019-03-12T19:45:03.025Z,83.93
2019-03-12T19:47:33.164Z,83.88
2019-03-12T19:50:02.865Z,83.97
2019-03-12T19:52:32.463Z,83.91
2019-03-12T19:55:02.442Z,83.90
2019-03-12T19:57:32.272Z,83.80
2019-03-12T20:00:01.971Z,84.02
2019-03-12T20:02:32.862Z,83.95
2019-03-12T20:05:02.544Z,83.85
2019-03-12T20:07:32.419Z,83.94
2019-03-12T20:10:28.922Z,84.18
2019-03-12T20:13:34.223Z,84.25
2019-03-12T20:16:41.937Z,84.15
2019-03-12T20:20:06.891Z,84.23
2019-03-12T20:23:12.218Z,84.14
2019-03-12T20:26:30.955Z,84.03
2019-03-12T20:29:36.647Z,84.16
2019-03-12T20:32:48.331Z,84.15
2019-03-12T20:36:03.318Z,84.09
2019-03-12T20:39:11.283Z,84.44
2019-03-12T20:42:20.907Z,84.11
2019-03-12T20:45:26.096Z,84.32
2019-03-12T20:48:31.308Z,84.00
2019-03-12T20:51:46.706Z,84.22
2019-03-12T20:54:57.653Z,84.37
2019-03-12T20:58:11.216Z,84.42
2019-03-12T21:01:05.183Z,84.41
2019-03-12T21:04:10.416Z,84.43
2019-03-12T21:07:29.866Z,84.53
2019-03-12T21:10:55.639Z,84.51
2019-03-12T21:14:17.614Z,84.49
2019-03-12T21:17:25.516Z,84.51
2019-03-12T21:20:40.693Z,84.34
2019-03-12T21:23:28.292Z,84.43
2019-03-12T21:26:35.958Z,84.44
2019-03-12T21:29:53.485Z,84.31
2019-03-12T21:32:23.264Z,84.52
2019-03-12T21:34:52.959Z,84.39
2019-03-12T21:37:22.740Z,84.47
2019-03-12T21:39:55.676Z,84.42
2019-03-12T21:42:25.564Z,84.48
2019-03-12T21:44:55.611Z,84.61
2019-03-12T21:47:25.650Z,84.58
2019-03-12T21:49:57.982Z,84.55
2019-03-12T21:52:28.038Z,84.56
2019-03-12T21:54:58.109Z,84.76
2019-03-12T21:57:28.007Z,84.49
2019-03-12T21:59:57.971Z,84.48
2019-03-12T22:02:28.006Z,84.45
2019-03-12T22:04:57.849Z,84.37
2019-03-12T22:07:27.671Z,84.38
2019-03-12T22:09:57.475Z,84.33
2019-03-12T22:12:27.408Z,84.57
2019-03-12T22:14:57.400Z,84.56
2019-03-12T22:17:27.216Z,84.44
2019-03-12T22:19:57.031Z,84.56
2019-03-12T22:22:40.259Z,84.39
2019-03-12T22:25:11.578Z,84.21
2019-03-12T22:27:41.392Z,84.46
2019-03-12T22:30:17.036Z,84.42
2019-03-12T22:32:46.698Z,84.59
2019-03-12T22:35:16.191Z,84.59
2019-03-12T22:37:45.805Z,84.62
2019-03-12T22:40:15.816Z,84.56
2019-03-12T22:42:45.476Z,84.50
2019-03-12T22:45:15.283Z,84.55
2019-03-12T22:47:44.859Z,84.67
2019-03-12T22:50:15.149Z,84.76
2019-03-12T22:52:44.943Z,84.86
2019-03-12T22:55:14.710Z,84.99
2019-03-12T22:57:44.350Z,84.73
2019-03-12T23:00:14.249Z,84.89
2019-03-12T23:02:43.910Z,85.08
2019-03-12T23:05:13.765Z,85.10
2019-03-12T23:07:43.853Z,85.24
2019-03-12T23:10:14.937Z,85.12
2019-03-12T23:12:44.671Z,84.89
2019-03-12T23:15:14.906Z,84.67
2019-03-12T23:17:44.578Z,85.01
2019-03-12T23:20:15.463Z,85.00
2019-03-12T23:22:45.197Z,85.14
2019-03-12T23:25:14.945Z,85.11
2019-03-12T23:27:45.179Z,85.05
2019-03-12T23:30:15.158Z,84.97
2019-03-12T23:32:44.822Z,84.92
2019-03-12T23:35:15.054Z,84.94
2019-03-12T23:37:44.600Z,85.07
2019-03-12T23:40:14.791Z,84.98
2019-03-12T23:42:44.411Z,84.94
2019-03-12T23:45:14.691Z,84.98
2019-03-12T23:47:44.818Z,85.13
2019-03-12T23:50:15.328Z,85.16
2019-03-12T23:52:45.259Z,85.32
2019-03-12T23:55:15.570Z,85.18
2019-03-12T23:57:45.344Z,85.26
